createdAt,value
2023-04-21T00:01:43.466Z,33.63
2023-04-21T00:04:15.318Z,32.40
2023-04-21T00:06:44.428Z,32.73
2023-04-21T00:09:13.856Z,33.67
2023-04-21T00:11:42.029Z,34.83
2023-04-21T00:14:10.181Z,41.13
2023-04-21T00:16:38.319Z,32.60
2023-04-21T00:19:07.544Z,34.20
2023-04-21T00:21:36.338Z,29.67
2023-04-21T00:24:04.667Z,37.00
2023-04-21T00:26:34.069Z,39.47
2023-04-21T00:29:02.393Z,31.67
2023-04-21T00:31:32.191Z,39.80
2023-04-21T00:34:00.551Z,31.30
2023-04-21T00:36:29.045Z,36.67
2023-04-21T00:38:57.033Z,30.57
2023-04-21T00:41:25.049Z,29.90
2023-04-21T00:44:05.093Z,35.33
2023-04-21T00:46:33.432Z,35.10
2023-04-21T00:49:04.141Z,31.77
2023-04-21T00:51:33.694Z,38.17
2023-04-21T00:54:03.481Z,32.67
2023-04-21T00:56:33.646Z,36.23
2023-04-21T00:59:04.052Z,46.37
2023-04-21T01:01:32.622Z,30.07
2023-04-21T01:04:02.122Z,37.47
2023-04-21T01:06:33.163Z,28.30
2023-04-21T01:09:01.860Z,34.03
2023-04-21T01:11:30.010Z,33.80
2023-04-21T01:13:58.653Z,37.00
2023-04-21T01:16:28.578Z,39.27
2023-04-21T01:18:57.156Z,32.60
2023-04-21T01:21:25.182Z,37.80
2023-04-21T01:23:54.518Z,29.90
2023-04-21T01:26:23.586Z,32.03
2023-04-21T01:28:51.696Z,31.13
2023-04-21T01:31:21.141Z,24.93
2023-04-21T01:33:49.208Z,33.17
2023-04-21T01:36:17.827Z,23.47
2023-04-21T01:38:45.959Z,32.43
2023-04-21T01:41:15.881Z,25.13
2023-04-21T01:43:43.845Z,44.17
2023-04-21T01:46:11.866Z,27.77
2023-04-21T01:48:39.963Z,24.40
2023-04-21T01:51:07.942Z,31.73
2023-04-21T01:53:35.921Z,33.73
2023-04-21T01:56:03.989Z,35.07
2023-04-21T01:58:33.851Z,24.60
2023-04-21T02:01:01.874Z,22.13
2023-04-21T02:03:30.125Z,23.70
2023-04-21T02:05:58.156Z,23.07
2023-04-21T02:08:26.212Z,23.80
2023-04-21T02:10:54.247Z,34.87
2023-04-21T02:13:22.387Z,18.47
2023-04-21T02:16:05.839Z,27.70
2023-04-21T02:18:39.986Z,22.27
2023-04-21T02:21:08.314Z,31.37
2023-04-21T02:23:36.340Z,25.53
2023-04-21T02:26:04.409Z,26.47
2023-04-21T02:28:33.589Z,22.10
2023-04-21T02:31:03.008Z,21.33
2023-04-21T02:33:35.061Z,21.13
2023-04-21T02:36:03.302Z,21.90
2023-04-21T02:38:31.382Z,24.03
2023-04-21T02:40:59.631Z,23.10
2023-04-21T02:43:27.752Z,27.37
2023-04-21T02:45:56.912Z,27.37
2023-04-21T02:48:26.881Z,27.63
2023-04-21T02:50:54.958Z,19.07
2023-04-21T02:53:23.040Z,21.20
2023-04-21T02:55:52.920Z,23.57
2023-04-21T02:58:21.195Z,23.50
2023-04-21T03:00:49.428Z,19.80
2023-04-21T03:03:17.610Z,17.13
2023-04-21T03:05:47.121Z,20.00
2023-04-21T03:08:15.504Z,19.23
2023-04-21T03:10:43.680Z,16.97
2023-04-21T03:13:11.704Z,25.30
2023-04-21T03:15:39.719Z,20.33
2023-04-21T03:18:07.836Z,19.13
2023-04-21T03:20:35.971Z,26.10
2023-04-21T03:23:05.422Z,17.67
2023-04-21T03:25:33.480Z,21.93
2023-04-21T03:28:01.876Z,24.80
2023-04-21T03:30:29.903Z,28.70
2023-04-21T03:32:58.747Z,19.10
2023-04-21T03:35:27.024Z,22.20
2023-04-21T03:37:55.250Z,30.00
2023-04-21T03:40:24.718Z,22.10
2023-04-21T03:42:53.314Z,24.93
2023-04-21T03:45:22.725Z,19.30
2023-04-21T03:47:53.933Z,21.10
2023-04-21T03:50:22.064Z,14.73
2023-04-21T03:52:50.087Z,19.90
2023-04-21T03:55:18.228Z,21.60
2023-04-21T03:57:47.552Z,18.57
2023-04-21T04:00:15.987Z,19.43
2023-04-21T04:02:44.857Z,23.27
2023-04-21T04:05:12.976Z,19.77
2023-04-21T04:07:41.207Z,17.13
2023-04-21T04:10:10.306Z,11.57
2023-04-21T04:12:38.613Z,20.10
2023-04-21T04:15:09.405Z,16.63
2023-04-21T04:17:37.473Z,28.17
2023-04-21T04:20:08.464Z,16.97
2023-04-21T04:22:37.035Z,15.20
2023-04-21T04:25:05.464Z,17.10
2023-04-21T04:27:34.304Z,24.83
2023-04-21T04:30:03.206Z,15.43
2023-04-21T04:32:33.647Z,22.97
2023-04-21T04:35:02.514Z,20.97
2023-04-21T04:37:31.799Z,14.43
2023-04-21T04:39:59.901Z,14.97
2023-04-21T04:42:29.024Z,14.97
2023-04-21T04:44:57.338Z,14.90
2023-04-21T04:47:25.417Z,18.30
2023-04-21T04:49:54.884Z,18.60
2023-04-21T04:52:22.885Z,16.00
2023-04-21T04:54:50.876Z,14.87
2023-04-21T04:57:18.921Z,18.13
2023-04-21T04:59:46.894Z,17.80
2023-04-21T05:02:16.934Z,17.83
2023-04-21T05:04:45.523Z,19.80
2023-04-21T05:07:14.923Z,21.37
2023-04-21T05:09:43.097Z,22.00
2023-04-21T05:12:11.997Z,12.63
2023-04-21T05:14:40.035Z,11.13
2023-04-21T05:17:08.137Z,12.10
2023-04-21T05:19:37.389Z,10.43
2023-04-21T05:22:06.531Z,10.33
2023-04-21T05:24:36.450Z,18.27
2023-04-21T05:27:04.598Z,15.37
2023-04-21T05:29:34.240Z,14.80
2023-04-21T05:32:02.440Z,19.77
2023-04-21T05:34:30.572Z,15.03
2023-04-21T05:36:58.685Z,11.80
2023-04-21T05:39:28.779Z,18.17
2023-04-21T05:41:58.345Z,8.73
2023-04-21T05:44:26.449Z,15.77
2023-04-21T05:46:54.588Z,13.77
2023-04-21T05:49:22.700Z,10.60
2023-04-21T05:51:50.815Z,6.67
2023-04-21T05:54:19.570Z,10.97
2023-04-21T05:56:48.606Z,13.07
2023-04-21T05:59:18.263Z,10.77
2023-04-21T06:01:46.352Z,7.00
2023-04-21T06:04:14.733Z,15.60
2023-04-21T06:06:44.321Z,13.40
2023-04-21T06:09:15.615Z,7.50
2023-04-21T06:11:43.845Z,8.13
2023-04-21T06:14:11.926Z,11.33
2023-04-21T06:16:41.370Z,10.17
2023-04-21T06:19:09.640Z,9.07
2023-04-21T06:21:37.749Z,14.63
2023-04-21T06:24:06.269Z,12.97
2023-04-21T06:26:34.328Z,12.30
2023-04-21T06:29:02.450Z,10.93
2023-04-21T06:31:31.097Z,5.47
2023-04-21T06:34:00.650Z,9.10
2023-04-21T06:36:28.817Z,10.47
2023-04-21T06:38:57.009Z,11.70
2023-04-21T06:41:25.097Z,10.93
2023-04-21T06:43:53.099Z,6.80
2023-04-21T06:46:21.151Z,9.53
2023-04-21T06:48:49.189Z,9.67
2023-04-21T06:51:18.659Z,6.37
2023-04-21T06:53:46.703Z,13.90
2023-04-21T06:56:14.719Z,7.20
2023-04-21T06:58:43.858Z,14.37
2023-04-21T07:01:11.961Z,5.90
2023-04-21T07:03:40.072Z,10.20
2023-04-21T07:06:08.324Z,12.23
2023-04-21T07:08:37.709Z,10.13
2023-04-21T07:11:06.064Z,9.33
2023-04-21T07:13:34.285Z,10.03
2023-04-21T07:16:02.342Z,7.37
2023-04-21T07:18:30.364Z,13.50
2023-04-21T07:20:58.432Z,10.07
2023-04-21T07:23:26.549Z,14.20
2023-04-21T07:25:56.113Z,9.03
2023-04-21T07:28:24.200Z,7.40
2023-04-21T07:30:52.426Z,9.00
2023-04-21T07:33:20.514Z,14.27
2023-04-21T07:35:48.685Z,22.83
2023-04-21T07:38:16.766Z,10.17
2023-04-21T07:40:44.967Z,13.40
2023-04-21T07:43:14.424Z,22.27
2023-04-21T07:45:42.510Z,4.73
2023-04-21T07:48:10.584Z,17.90
2023-04-21T07:50:38.927Z,6.50
2023-04-21T07:53:07.377Z,8.57
2023-04-21T07:55:37.178Z,10.83
2023-04-21T07:58:05.622Z,9.50
2023-04-21T08:00:35.132Z,5.30
2023-04-21T08:03:03.283Z,8.93
2023-04-21T08:05:34.907Z,9.90
2023-04-21T08:08:05.078Z,8.70
2023-04-21T08:10:33.121Z,7.87
2023-04-21T08:13:01.328Z,8.70
2023-04-21T08:15:29.405Z,12.10
2023-04-21T08:17:59.340Z,8.87
2023-04-21T08:20:27.558Z,10.73
2023-04-21T08:22:55.768Z,14.63
2023-04-21T08:25:23.835Z,14.97
2023-04-21T08:27:51.986Z,11.70
2023-04-21T08:30:20.028Z,11.03
2023-04-21T08:32:48.168Z,11.83
2023-04-21T08:35:17.784Z,13.50
2023-04-21T08:37:46.311Z,10.57
2023-04-21T08:40:14.661Z,27.90
2023-04-21T08:42:43.487Z,7.70
2023-04-21T08:45:12.136Z,12.53
2023-04-21T08:47:42.663Z,11.10
2023-04-21T08:50:14.629Z,7.47
2023-04-21T08:52:44.081Z,7.00
2023-04-21T08:55:13.892Z,6.70
2023-04-21T08:57:42.024Z,9.30
2023-04-21T09:00:11.199Z,8.30
2023-04-21T09:03:00.240Z,13.17
2023-04-21T09:05:31.105Z,7.93
2023-04-21T09:08:10.994Z,10.87
2023-04-21T09:10:46.389Z,12.53
2023-04-21T09:13:14.829Z,10.00
2023-04-21T09:15:43.839Z,9.43
2023-04-21T09:18:14.169Z,7.53
2023-04-21T09:20:43.706Z,6.70
2023-04-21T09:23:13.644Z,8.80
2023-04-21T09:25:42.756Z,6.47
2023-04-21T09:28:11.901Z,5.97
2023-04-21T09:30:41.468Z,4.57
2023-04-21T09:33:27.295Z,9.03
2023-04-21T09:36:02.964Z,8.37
2023-04-21T09:38:33.727Z,8.30
2023-04-21T09:41:01.930Z,10.27
2023-04-21T09:43:29.974Z,4.10
2023-04-21T09:46:00.419Z,4.40
2023-04-21T09:48:33.863Z,7.50
2023-04-21T09:51:25.339Z,8.50
2023-04-21T09:53:54.413Z,8.57
2023-04-21T09:56:25.751Z,11.33
2023-04-21T09:58:55.210Z,4.90
2023-04-21T10:01:25.681Z,10.80
2023-04-21T10:03:54.512Z,5.90
2023-04-21T10:06:22.776Z,3.50
2023-04-21T10:08:52.954Z,4.43
2023-04-21T10:11:21.021Z,7.33
2023-04-21T10:13:49.349Z,6.13
2023-04-21T10:16:19.839Z,5.60
2023-04-21T10:18:47.982Z,7.93
2023-04-21T10:21:21.210Z,7.37
2023-04-21T10:23:59.179Z,5.43
2023-04-21T10:26:33.399Z,4.80
2023-04-21T10:29:02.583Z,4.07
2023-04-21T10:31:33.129Z,5.80
2023-04-21T10:34:17.887Z,3.43
2023-04-21T10:37:12.855Z,6.70
2023-04-21T10:39:48.295Z,8.30
2023-04-21T10:42:27.446Z,4.30
2023-04-21T10:45:09.951Z,5.97
2023-04-21T10:47:41.238Z,6.80
2023-04-21T10:50:18.308Z,4.73
2023-04-21T10:52:48.004Z,5.70
2023-04-21T10:55:17.347Z,6.00
2023-04-21T10:57:46.558Z,4.53
2023-04-21T11:00:19.853Z,8.43
2023-04-21T11:02:55.990Z,5.70
2023-04-21T11:05:29.639Z,7.23
2023-04-21T11:08:08.286Z,4.23
2023-04-21T11:10:55.619Z,3.50
2023-04-21T11:13:25.700Z,3.60
2023-04-21T11:16:01.573Z,4.37
2023-04-21T11:18:41.296Z,5.03
2023-04-21T11:21:17.711Z,4.40
2023-04-21T11:23:53.619Z,6.93
2023-04-21T11:26:32.866Z,6.60
2023-04-21T11:29:06.017Z,13.43
2023-04-21T11:31:34.756Z,4.30
2023-04-21T11:34:05.178Z,6.43
2023-04-21T11:36:33.950Z,9.30
2023-04-21T11:39:08.159Z,6.50
2023-04-21T11:41:39.883Z,8.97
2023-04-21T11:44:08.101Z,5.00
2023-04-21T11:46:37.229Z,8.33
2023-04-21T11:49:07.124Z,5.60
2023-04-21T11:51:36.264Z,6.00
2023-04-21T11:54:06.756Z,7.43
2023-04-21T11:56:38.106Z,5.40
2023-04-21T11:59:09.841Z,3.90
2023-04-21T12:01:44.471Z,4.87
2023-04-21T12:04:15.604Z,4.77
2023-04-21T12:06:44.427Z,6.73
2023-04-21T12:09:18.626Z,4.83
2023-04-21T12:11:50.881Z,5.13
2023-04-21T12:14:19.395Z,4.23
2023-04-21T12:16:49.836Z,7.00
2023-04-21T12:19:24.297Z,5.63
2023-04-21T12:21:55.179Z,13.20
2023-04-21T12:24:23.205Z,5.40
2023-04-21T12:26:52.626Z,7.93
2023-04-21T12:29:20.891Z,4.93
2023-04-21T12:31:48.800Z,6.20
2023-04-21T12:34:17.048Z,9.40
2023-04-21T12:36:45.010Z,3.80
2023-04-21T12:39:13.455Z,3.30
2023-04-21T12:41:42.018Z,3.50
2023-04-21T12:44:11.302Z,7.00
2023-04-21T12:46:39.485Z,4.57
2023-04-21T12:49:07.717Z,4.63
2023-04-21T12:51:36.221Z,7.60
2023-04-21T12:54:05.194Z,9.77
2023-04-21T12:56:33.122Z,5.23
2023-04-21T12:59:01.178Z,11.83
2023-04-21T13:01:30.857Z,8.60
2023-04-21T13:03:58.979Z,8.77
2023-04-21T13:06:28.054Z,4.73
2023-04-21T13:08:56.497Z,6.27
2023-04-21T13:11:24.441Z,4.20
2023-04-21T13:13:52.599Z,8.23
2023-04-21T13:16:20.586Z,6.70
2023-04-21T13:18:49.977Z,7.90
2023-04-21T13:21:17.975Z,6.30
2023-04-21T13:23:46.072Z,6.63
2023-04-21T13:26:14.015Z,3.90
2023-04-21T13:28:41.929Z,7.00
2023-04-21T13:31:09.913Z,6.00
2023-04-21T13:33:37.996Z,3.97
2023-04-21T13:36:10.601Z,7.70
2023-04-21T13:38:40.771Z,10.67
2023-04-21T13:41:09.375Z,5.70
2023-04-21T13:43:37.718Z,3.13
2023-04-21T13:46:05.768Z,3.27
2023-04-21T13:48:33.849Z,4.30
2023-04-21T13:51:01.837Z,4.33
2023-04-21T13:53:31.148Z,4.63
2023-04-21T13:55:59.455Z,9.53
2023-04-21T13:58:27.825Z,5.20
2023-04-21T14:00:55.709Z,6.83
2023-04-21T14:03:23.734Z,5.07
2023-04-21T14:05:51.851Z,19.87
2023-04-21T14:08:20.670Z,2.70
2023-04-21T14:10:50.015Z,7.00
2023-04-21T14:13:34.004Z,4.73
2023-04-21T14:16:04.032Z,4.53
2023-04-21T14:18:32.060Z,6.87
2023-04-21T14:21:00.055Z,6.27
2023-04-21T14:23:28.116Z,9.20
2023-04-21T14:25:57.361Z,3.37
2023-04-21T14:28:25.304Z,9.30
2023-04-21T14:30:53.192Z,4.27
2023-04-21T14:33:21.136Z,8.90
2023-04-21T14:35:49.266Z,6.43
2023-04-21T14:38:17.321Z,9.70
2023-04-21T14:40:45.569Z,7.20
2023-04-21T14:43:14.813Z,6.80
2023-04-21T14:45:43.621Z,6.60
2023-04-21T14:48:14.086Z,8.40
2023-04-21T14:50:42.172Z,4.97
2023-04-21T14:53:10.089Z,3.17
2023-04-21T14:55:38.082Z,10.23
2023-04-21T14:58:06.019Z,7.13
2023-04-21T15:00:36.461Z,3.17
2023-04-21T15:03:04.824Z,12.60
2023-04-21T15:05:34.803Z,5.23
2023-04-21T15:08:03.243Z,4.67
2023-04-21T15:10:32.356Z,13.60
2023-04-21T15:13:00.722Z,3.93
2023-04-21T15:15:28.776Z,5.80
2023-04-21T15:17:58.060Z,2.30
2023-04-21T15:20:36.867Z,9.23
2023-04-21T15:23:11.823Z,7.03
2023-04-21T15:25:45.195Z,3.47
2023-04-21T15:28:13.688Z,6.07
2023-04-21T15:30:41.749Z,6.43
2023-04-21T15:33:11.679Z,4.40
2023-04-21T15:35:39.687Z,6.07
2023-04-21T15:38:07.795Z,3.93
2023-04-21T15:40:39.288Z,4.10
2023-04-21T15:43:14.492Z,3.83
2023-04-21T15:45:42.967Z,4.60
2023-04-21T15:48:13.237Z,6.50
2023-04-21T15:50:41.475Z,10.30
2023-04-21T15:53:09.620Z,8.27
2023-04-21T15:55:37.795Z,7.00
2023-04-21T15:58:06.019Z,2.20
2023-04-21T16:00:34.022Z,2.43
2023-04-21T16:03:02.431Z,5.10
2023-04-21T16:05:32.028Z,2.53
2023-04-21T16:08:00.236Z,4.30
2023-04-21T16:10:28.297Z,5.40
2023-04-21T16:12:56.342Z,2.20
2023-04-21T16:15:25.340Z,4.43
2023-04-21T16:17:53.658Z,7.07
2023-04-21T16:20:21.773Z,1.30
2023-04-21T16:22:51.628Z,4.70
2023-04-21T16:25:20.087Z,2.87
2023-04-21T16:27:48.210Z,2.17
2023-04-21T16:30:16.442Z,3.07
2023-04-21T16:32:44.396Z,5.13
2023-04-21T16:35:12.396Z,9.73
2023-04-21T16:37:42.676Z,5.33
2023-04-21T16:40:12.735Z,5.63
2023-04-21T16:42:40.674Z,6.20
2023-04-21T16:45:09.479Z,15.63
2023-04-21T16:47:41.654Z,4.73
2023-04-21T16:50:11.653Z,4.53
2023-04-21T16:52:39.679Z,5.10
2023-04-21T16:55:08.750Z,5.00
2023-04-21T16:57:38.263Z,5.90
2023-04-21T17:00:08.644Z,13.90
2023-04-21T17:02:36.760Z,2.63
2023-04-21T17:05:05.260Z,2.73
2023-04-21T17:07:33.145Z,4.90
2023-04-21T17:10:02.577Z,2.50
2023-04-21T17:12:30.679Z,7.80
2023-04-21T17:15:00.033Z,4.07
2023-04-21T17:17:28.103Z,7.80
2023-04-21T17:19:56.539Z,4.93
2023-04-21T17:22:24.394Z,3.13
2023-04-21T17:24:53.778Z,3.30
2023-04-21T17:27:22.503Z,4.40
2023-04-21T17:29:51.098Z,14.17
2023-04-21T17:32:20.601Z,8.53
2023-04-21T17:34:48.657Z,5.27
2023-04-21T17:37:16.734Z,10.70
2023-04-21T17:39:44.746Z,9.07
2023-04-21T17:42:12.663Z,8.03
2023-04-21T17:44:41.291Z,10.00
2023-04-21T17:47:09.818Z,4.37
2023-04-21T17:49:39.467Z,5.20
2023-04-21T17:52:07.446Z,9.10
2023-04-21T17:54:36.025Z,5.03
2023-04-21T17:57:04.469Z,8.07
2023-04-21T17:59:32.458Z,13.43
2023-04-21T18:02:01.026Z,8.40
2023-04-21T18:04:30.737Z,12.37
2023-04-21T18:07:00.220Z,7.07
2023-04-21T18:09:28.569Z,14.93
2023-04-21T18:11:56.973Z,6.57
2023-04-21T18:14:25.613Z,3.00
2023-04-21T18:16:53.625Z,11.17
2023-04-21T18:19:21.637Z,4.83
2023-04-21T18:21:49.827Z,12.07
2023-04-21T18:24:19.379Z,29.07
2023-04-21T18:26:47.430Z,14.70
2023-04-21T18:29:17.967Z,16.87
2023-04-21T18:31:46.405Z,13.63
2023-04-21T18:34:15.166Z,16.97
2023-04-21T18:36:43.542Z,5.27
2023-04-21T18:39:13.999Z,7.00
2023-04-21T18:41:56.308Z,6.40
2023-04-21T18:44:32.917Z,7.50
2023-04-21T18:47:01.306Z,14.37
2023-04-21T18:49:42.995Z,5.37
2023-04-21T18:52:39.827Z,5.80
2023-04-21T18:55:45.848Z,4.57
2023-04-21T18:58:45.851Z,6.53
2023-04-21T19:01:26.909Z,6.47
2023-04-21T19:04:25.201Z,4.80
2023-04-21T19:07:06.029Z,6.77
2023-04-21T19:09:53.262Z,4.73
2023-04-21T19:12:52.665Z,5.63
2023-04-21T19:15:58.476Z,4.40
2023-04-21T19:19:10.337Z,10.90
2023-04-21T19:21:58.605Z,11.47
2023-04-21T19:29:31.851Z,11.43
2023-04-21T19:33:21.952Z,5.20
2023-04-21T19:43:28.327Z,4.77
2023-04-21T19:54:11.926Z,8.30
2023-04-21T19:56:40.865Z,16.43
2023-04-21T19:59:09.186Z,4.13
2023-04-21T20:01:37.446Z,5.40
2023-04-21T20:04:06.883Z,7.00
2023-04-21T20:06:35.488Z,3.60
2023-04-21T20:09:05.831Z,12.07
2023-04-21T20:11:35.320Z,3.10
2023-04-21T20:14:03.519Z,5.80
2023-04-21T20:16:32.897Z,4.77
2023-04-21T20:19:01.122Z,8.30
2023-04-21T20:21:29.131Z,8.63
2023-04-21T20:23:57.183Z,4.13
2023-04-21T20:26:26.077Z,11.83
2023-04-21T20:28:55.451Z,6.97
2023-04-21T20:31:25.453Z,4.97
2023-04-21T20:33:53.657Z,2.57
2023-04-21T20:36:22.222Z,4.60
2023-04-21T20:38:50.390Z,4.20
2023-04-21T20:41:18.606Z,10.83
2023-04-21T20:43:46.665Z,4.10
2023-04-21T20:46:17.694Z,9.97
2023-04-21T20:48:45.734Z,18.70
2023-04-21T20:51:14.533Z,5.37
2023-04-21T20:53:42.518Z,11.70
2023-04-21T20:56:10.791Z,3.17
2023-04-21T20:58:39.201Z,6.27
2023-04-21T21:01:07.770Z,5.17
2023-04-21T21:03:37.371Z,2.73
2023-04-21T21:06:05.925Z,3.07
2023-04-21T21:08:34.943Z,3.23
2023-04-21T21:11:02.948Z,4.20
2023-04-21T21:13:30.941Z,10.30
2023-04-21T21:15:59.274Z,5.17
2023-04-21T21:18:28.457Z,6.10
2023-04-21T21:20:57.901Z,6.47
2023-04-21T21:23:26.270Z,5.80
2023-04-21T21:25:54.355Z,5.43
2023-04-21T21:28:22.487Z,3.37
2023-04-21T21:30:50.524Z,4.80
2023-04-21T21:33:18.634Z,6.07
2023-04-21T21:35:46.739Z,12.93
2023-04-21T21:38:16.235Z,4.70
2023-04-21T21:40:44.244Z,3.67
2023-04-21T21:43:12.313Z,10.57
2023-04-21T21:45:40.577Z,10.10
2023-04-21T21:48:09.210Z,13.87
2023-04-21T21:50:37.326Z,12.97
2023-04-21T21:53:06.445Z,9.50
2023-04-21T21:55:36.049Z,3.23
2023-04-21T21:58:04.436Z,9.67
2023-04-21T22:00:32.499Z,6.10
2023-04-21T22:03:00.782Z,8.30
2023-04-21T22:05:28.943Z,7.53
2023-04-21T22:07:58.289Z,7.20
2023-04-21T22:10:27.118Z,10.47
2023-04-21T22:12:56.543Z,9.30
2023-04-21T22:15:24.575Z,5.00
2023-04-21T22:17:52.618Z,10.47
2023-04-21T22:20:22.025Z,6.43
2023-04-21T22:22:50.035Z,4.00
2023-04-21T22:25:18.197Z,12.73
2023-04-21T22:27:46.253Z,7.37
2023-04-21T22:30:15.743Z,7.30
2023-04-21T22:32:43.826Z,9.83
2023-04-21T22:35:11.788Z,6.73
2023-04-21T22:37:39.901Z,5.43
2023-04-21T22:40:09.309Z,9.10
2023-04-21T22:42:37.818Z,9.40
2023-04-21T22:45:06.318Z,7.03
2023-04-21T22:47:35.844Z,7.03
2023-04-21T22:50:04.420Z,4.83
2023-04-21T22:52:32.428Z,16.30
2023-04-21T22:55:00.411Z,6.83
2023-04-21T22:57:28.500Z,8.00
2023-04-21T22:59:56.830Z,3.57
2023-04-21T23:02:25.834Z,5.90
2023-04-21T23:04:55.866Z,5.13
2023-04-21T23:07:23.855Z,5.80
2023-04-21T23:09:51.864Z,4.13
2023-04-21T23:12:19.979Z,3.80
2023-04-21T23:14:48.339Z,6.80
2023-04-21T23:17:16.354Z,3.27
2023-04-21T23:19:44.338Z,3.57
2023-04-21T23:22:13.792Z,4.30
2023-04-21T23:24:41.767Z,4.83
2023-04-21T23:27:09.757Z,3.13
2023-04-21T23:29:37.948Z,5.50
2023-04-21T23:32:06.833Z,6.30
2023-04-21T23:34:35.020Z,4.90
2023-04-21T23:37:03.057Z,9.83
2023-04-21T23:39:32.662Z,10.40
2023-04-21T23:42:02.372Z,8.37
2023-04-21T23:44:30.474Z,12.87
2023-04-21T23:46:58.577Z,9.80
2023-04-21T23:49:26.557Z,5.20
2023-04-21T23:51:54.610Z,14.77
2023-04-21T23:54:23.051Z,7.40
2023-04-21T23:56:52.414Z,9.00
2023-04-21T23:59:20.664Z,2.27
